Time;durP1;ratioP1;P1;durP2;ratioP2;P2;SDS_P1;SDS_P2;PMS_P1;PMS_P2;Temp;Humidity;BMP_temperature;BMP_pressure;BME280_temperature;BME280_humidity;BME280_pressure;Samples;Min_cycle;Max_cycle;Signal;HPM_P1;HPM_P2
2022/08/04 00:00:03;;;;;;;13.95;6.20;;;20.10;99.90;;;;;;5049340;28;20102;-66
2022/08/04 00:02:46;;;;;;;11.02;7.05;;;20.10;99.90;;;;;;5061883;28;20048;-66
2022/08/04 00:05:24;;;;;;;12.23;6.53;;;20.10;99.90;;;;;;5070264;28;20040;-66
2022/08/04 00:08:10;;;;;;;10.07;6.38;;;20.10;99.90;;;;;;5066653;28;20032;-66
2022/08/04 00:10:39;;;;;;;11.75;7.20;;;20.10;99.90;;;;;;5070956;28;20135;-66
2022/08/04 00:13:07;;;;;;;12.88;6.80;;;20.10;99.90;;;;;;5065945;28;20094;-66
2022/08/04 00:15:33;;;;;;;8.35;6.10;;;20.10;99.90;;;;;;5051958;28;20075;-66
2022/08/04 00:18:06;;;;;;;8.43;6.35;;;20.00;99.90;;;;;;5070348;28;20052;-66
2022/08/04 00:20:33;;;;;;;11.50;6.60;;;20.00;99.90;;;;;;5067514;28;20045;-66
2022/08/04 00:23:00;;;;;;;12.50;6.90;;;20.00;99.90;;;;;;5067689;28;20110;-66
2022/08/04 00:25:27;;;;;;;11.15;5.93;;;19.90;99.90;;;;;;5068825;28;20036;-66
2022/08/04 00:27:53;;;;;;;13.35;6.82;;;19.90;99.90;;;;;;5064316;28;20445;-66
2022/08/04 00:30:20;;;;;;;10.32;6.30;;;19.90;99.90;;;;;;5056839;28;20036;-66
2022/08/04 00:32:46;;;;;;;10.43;6.20;;;19.90;99.90;;;;;;5066627;28;20036;-66
2022/08/04 00:35:13;;;;;;;10.02;5.82;;;19.80;99.90;;;;;;5068045;28;20040;-66
2022/08/04 00:37:39;;;;;;;8.18;5.93;;;19.80;99.90;;;;;;5060118;28;20037;-66
2022/08/04 00:40:30;;;;;;;12.48;5.53;;;19.80;99.90;;;;;;5068762;28;20048;-66
2022/08/04 00:43:05;;;;;;;8.52;5.40;;;19.70;99.90;;;;;;5068470;28;20048;-66
2022/08/04 00:45:50;;;;;;;10.43;5.55;;;19.70;99.90;;;;;;5071647;28;20043;-66
2022/08/04 00:48:50;;;;;;;11.80;5.78;;;19.60;99.90;;;;;;5071485;28;20055;-66
2022/08/04 00:51:32;;;;;;;9.90;6.18;;;19.70;99.90;;;;;;5050897;28;20128;-66
2022/08/04 00:54:04;;;;;;;;;;;19.60;99.90;;;;;;5065325;28;20079;-66
2022/08/04 00:56:48;;;;;;;10.32;5.85;;;19.60;99.90;;;;;;5052674;28;19920;-66
2022/08/04 00:59:35;;;;;;;8.27;6.07;;;19.60;99.90;;;;;;5061766;28;20070;-66
2022/08/04 01:02:31;;;;;;;9.55;6.10;;;19.60;99.90;;;;;;5069384;28;20044;-66
2022/08/04 01:05:28;;;;;;;14.13;6.38;;;19.50;99.90;;;;;;5021404;28;20122;-66
2022/08/04 01:08:31;;;;;;;11.05;5.93;;;19.60;99.90;;;;;;5065240;28;20066;-66
2022/08/04 01:11:09;;;;;;;9.30;5.72;;;19.50;99.90;;;;;;5070584;28;20045;-66
2022/08/04 01:14:14;;;;;;;10.80;5.80;;;19.50;99.90;;;;;;5052444;28;20091;-66
2022/08/04 01:16:50;;;;;;;10.93;5.97;;;19.50;99.90;;;;;;5067362;28;20382;-67
2022/08/04 01:19:38;;;;;;;11.35;6.15;;;19.40;99.90;;;;;;5053796;28;20091;-66
2022/08/04 01:22:20;;;;;;;9.18;5.65;;;19.40;99.90;;;;;;5050740;28;20075;-66
2022/08/04 01:25:17;;;;;;;10.82;6.18;;;19.40;99.90;;;;;;5065399;28;20083;-66
2022/08/04 01:28:05;;;;;;;7.82;5.55;;;19.40;99.90;;;;;;5061543;28;20048;-66
2022/08/04 01:30:32;;;;;;;8.55;6.38;;;19.40;99.90;;;;;;5064507;28;20450;-66
2022/08/04 01:33:11;;;;;;;10.13;5.85;;;19.30;99.90;;;;;;5058523;28;20048;-66
2022/08/04 01:35:37;;;;;;;8.30;5.43;;;19.30;99.90;;;;;;5064663;28;20091;-67
2022/08/04 01:38:18;;;;;;;9.95;5.85;;;19.30;99.90;;;;;;5064773;28;20071;-66
2022/08/04 01:40:45;;;;;;;13.25;5.85;;;19.30;99.90;;;;;;5059290;28;20037;-66
2022/08/04 01:43:14;;;;;;;8.55;5.30;;;19.30;99.90;;;;;;5047922;28;20056;-66
2022/08/04 01:45:40;;;;;;;9.35;5.65;;;19.20;99.90;;;;;;5050145;28;20079;-66
2022/08/04 01:48:07;;;;;;;10.85;5.70;;;19.20;99.90;;;;;;5067711;28;20510;-66
2022/08/04 01:50:34;;;;;;;8.05;5.88;;;19.20;99.90;;;;;;5066585;28;20044;-66
2022/08/04 01:53:02;;;;;;;9.77;5.38;;;19.20;99.90;;;;;;5050292;28;20419;-66
2022/08/04 01:55:29;;;;;;;10.48;5.75;;;19.20;99.90;;;;;;5053119;28;20486;-66
2022/08/04 01:57:58;;;;;;;12.02;6.05;;;19.10;99.90;;;;;;5071341;28;20086;-66
2022/08/04 02:00:26;;;;;;;9.27;5.97;;;19.10;99.90;;;;;;5065216;28;20552;-66
2022/08/04 02:02:53;;;;;;;12.00;6.35;;;19.10;99.90;;;;;;5057718;28;20119;-66
2022/08/04 02:05:21;;;;;;;10.23;5.63;;;19.10;99.90;;;;;;5065728;28;20056;-66
2022/08/04 02:08:03;;;;;;;9.95;5.80;;;19.00;99.90;;;;;;5070400;28;20056;-66
2022/08/04 02:10:56;;;;;;;8.25;5.68;;;19.00;99.90;;;;;;5069547;28;20044;-66
2022/08/04 02:14:03;;;;;;;10.02;4.95;;;18.90;99.90;;;;;;5069746;28;20094;-66
2022/08/04 02:16:35;;;;;;;8.25;5.25;;;18.90;99.90;;;;;;5057506;28;20059;-66
2022/08/04 02:19:19;;;;;;;11.38;4.97;;;18.90;99.90;;;;;;5060318;28;20078;-66
2022/08/04 02:21:50;;;;;;;6.85;5.18;;;18.90;99.90;;;;;;5050837;28;20044;-67
2022/08/04 02:24:20;;;;;;;7.03;5.13;;;18.90;99.90;;;;;;5067385;28;20056;-66
2022/08/04 02:26:48;;;;;;;9.82;5.38;;;18.80;99.90;;;;;;5039025;28;20048;-66
2022/08/04 02:29:18;;;;;;;10.93;5.35;;;18.90;99.90;;;;;;5051483;28;20095;-66
2022/08/04 02:32:03;;;;;;;7.78;4.90;;;18.80;99.90;;;;;;5066273;28;20140;-66
2022/08/04 02:34:37;;;;;;;10.23;5.80;;;18.80;99.90;;;;;;5068751;28;20055;-66
2022/08/04 02:37:04;;;;;;;10.73;5.35;;;18.80;99.90;;;;;;5052299;28;20032;-66
2022/08/04 02:39:33;;;;;;;8.90;5.18;;;18.80;99.90;;;;;;5068975;28;20448;-66
2022/08/04 02:42:01;;;;;;;11.60;6.10;;;18.80;99.90;;;;;;5068995;28;20076;-66
2022/08/04 02:44:29;;;;;;;7.38;6.10;;;18.70;99.90;;;;;;5067586;28;20075;-66
2022/08/04 02:46:55;;;;;;;10.10;5.85;;;18.70;99.90;;;;;;5068495;28;20044;-66
2022/08/04 02:49:22;;;;;;;8.98;5.47;;;18.70;99.90;;;;;;5065919;28;20035;-66
2022/08/04 02:51:55;;;;;;;9.05;5.60;;;18.70;99.90;;;;;;5052847;28;20041;-67
2022/08/04 02:54:27;;;;;;;5.97;5.22;;;18.70;99.90;;;;;;5058911;28;20111;-66
2022/08/04 02:56:54;;;;;;;;;;;18.70;99.90;;;;;;5068150;28;20060;-66
2022/08/04 02:59:24;;;;;;;8.32;5.38;;;18.60;99.90;;;;;;5082552;28;19970;-66
2022/08/04 03:01:50;;;;;;;9.25;5.75;;;18.60;99.90;;;;;;5053984;28;20044;-66
2022/08/04 03:04:49;;;;;;;8.82;6.10;;;18.60;99.90;;;;;;5069683;28;20419;-66
2022/08/04 03:07:24;;;;;;;8.00;5.40;;;18.70;99.90;;;;;;5069451;28;20044;-67
2022/08/04 03:10:17;;;;;;;9.52;5.50;;;18.60;99.90;;;;;;5070996;28;20133;-66
2022/08/04 03:13:20;;;;;;;8.27;5.63;;;18.60;99.90;;;;;;5067253;28;20040;-66
2022/08/04 03:16:07;;;;;;;10.35;5.88;;;18.60;99.90;;;;;;5071212;28;20356;-67
2022/08/04 03:18:52;;;;;;;9.57;6.30;;;18.60;99.90;;;;;;5068256;28;20115;-66
2022/08/04 03:21:39;;;;;;;11.02;5.93;;;18.60;99.90;;;;;;5073223;28;20104;-66
2022/08/04 03:24:29;;;;;;;9.32;6.32;;;18.60;99.90;;;;;;5073134;28;20052;-67
2022/08/04 03:27:18;;;;;;;9.75;7.10;;;18.60;99.90;;;;;;5068193;28;20056;-66
2022/08/04 03:30:06;;;;;;;15.13;8.40;;;18.50;99.90;;;;;;5068484;28;20433;-66
2022/08/04 03:32:57;;;;;;;15.80;8.43;;;18.50;99.90;;;;;;5063989;28;20083;-66
2022/08/04 03:36:09;;;;;;;12.18;7.70;;;18.40;99.90;;;;;;5062696;28;20040;-66
2022/08/04 03:38:53;;;;;;;10.18;6.97;;;;;;;;;;5054325;22;20058;-72
2022/08/04 03:41:47;;;;;;;7.80;6.10;;;18.30;99.90;;;;;;5036779;28;20055;-70
2022/08/04 03:44:43;;;;;;;13.77;6.57;;;18.40;99.90;;;;;;5033713;28;20033;-72
2022/08/04 03:47:21;;;;;;;9.00;6.22;;;18.40;99.90;;;;;;5024556;28;20033;-71
2022/08/04 03:50:24;;;;;;;9.98;5.88;;;18.40;99.90;;;;;;5051173;28;20037;-71
2022/08/04 03:53:08;;;;;;;11.88;5.97;;;18.40;99.90;;;;;;5024880;28;20045;-71
2022/08/04 03:55:54;;;;;;;11.40;7.03;;;18.30;99.90;;;;;;5033529;28;20041;-71
2022/08/04 03:58:47;;;;;;;10.77;7.30;;;18.30;99.90;;;;;;5035233;28;20033;-71
2022/08/04 04:01:38;;;;;;;11.93;7.13;;;18.30;99.90;;;;;;5034859;28;20356;-71
2022/08/04 04:04:31;;;;;;;8.68;6.38;;;18.20;99.90;;;;;;5031102;28;20580;-71
2022/08/04 04:07:26;;;;;;;7.95;6.10;;;18.20;99.90;;;;;;5018238;28;20048;-70
2022/08/04 04:10:13;;;;;;;8.13;5.63;;;18.30;99.90;;;;;;5031930;28;20042;-71
2022/08/04 04:13:17;;;;;;;11.15;6.07;;;18.30;99.90;;;;;;5035026;28;20709;-71
2022/08/04 04:15:45;;;;;;;8.65;5.50;;;18.40;99.90;;;;;;5031683;28;20049;-70
2022/08/04 04:18:25;;;;;;;8.88;7.00;;;18.40;99.90;;;;;;5036843;28;20033;-71
2022/08/04 04:21:18;;;;;;;8.18;5.82;;;18.40;99.90;;;;;;5051818;28;20040;-71
2022/08/04 04:24:12;;;;;;;8.10;5.50;;;18.40;99.90;;;;;;5035019;28;20044;-71
2022/08/04 04:26:54;;;;;;;7.50;5.82;;;18.40;99.90;;;;;;5028347;28;20052;-71
2022/08/04 04:29:37;;;;;;;8.38;5.80;;;18.40;99.90;;;;;;5051979;28;20043;-71
2022/08/04 04:32:22;;;;;;;9.23;6.32;;;18.40;99.90;;;;;;5012179;28;20413;-71
2022/08/04 04:35:06;;;;;;;9.85;6.53;;;18.40;99.90;;;;;;5033746;28;20671;-72
2022/08/04 04:38:00;;;;;;;8.68;6.20;;;18.40;99.90;;;;;;5033967;28;20108;-71
2022/08/04 04:40:53;;;;;;;8.32;5.93;;;18.50;99.90;;;;;;5047792;28;20216;-72
2022/08/04 04:43:31;;;;;;;7.25;5.60;;;18.70;99.90;;;;;;5049520;28;20091;-72
2022/08/04 04:46:10;;;;;;;9.32;6.03;;;18.80;99.90;;;;;;5034043;28;20083;-72
2022/08/04 04:48:49;;;;;;;8.82;5.80;;;18.80;99.90;;;;;;5030111;28;20053;-72
2022/08/04 04:51:37;;;;;;;12.77;6.40;;;18.90;99.90;;;;;;5022115;28;20045;-72
2022/08/04 04:54:50;;;;;;;12.18;6.80;;;19.00;99.90;;;;;;5051253;28;20544;-72
2022/08/04 04:57:17;;;;;;;9.63;6.40;;;19.10;99.90;;;;;;5026776;28;20044;-72
2022/08/04 05:00:01;;;;;;;8.57;6.57;;;19.20;99.90;;;;;;5050232;28;20059;-72
2022/08/04 05:02:57;;;;;;;7.50;6.57;;;19.30;99.90;;;;;;5014097;28;20048;-72
2022/08/04 05:05:49;;;;;;;13.05;6.90;;;19.40;99.90;;;;;;5052799;28;20367;-72
2022/08/04 05:08:36;;;;;;;13.18;7.60;;;19.50;99.90;;;;;;5032893;28;20478;-71
2022/08/04 05:11:39;;;;;;;11.05;6.57;;;19.50;99.90;;;;;;5032359;28;20632;-70
2022/08/04 05:14:19;;;;;;;10.18;7.47;;;19.60;99.90;;;;;;5021034;28;20098;-71
2022/08/04 05:17:17;;;;;;;11.73;7.40;;;19.70;99.90;;;;;;5033865;28;20041;-71
2022/08/04 05:19:54;;;;;;;10.82;7.05;;;19.80;99.90;;;;;;5025643;28;20036;-71
2022/08/04 05:22:36;;;;;;;11.95;7.78;;;20.00;99.90;;;;;;5043263;28;20132;-70
2022/08/04 05:25:11;;;;;;;13.35;8.15;;;20.10;99.90;;;;;;5026804;28;20045;-71
2022/08/04 05:27:40;;;;;;;11.88;8.18;;;20.30;99.90;;;;;;5027975;28;20075;-72
2022/08/04 05:30:08;;;;;;;14.25;8.15;;;20.40;99.90;;;;;;5033686;28;20095;-71
2022/08/04 05:32:54;;;;;;;11.60;8.23;;;20.60;99.90;;;;;;5033121;28;20136;-71
2022/08/04 05:35:34;;;;;;;12.05;8.32;;;20.70;99.90;;;;;;5018871;28;20060;-71
2022/08/04 05:38:02;;;;;;;12.60;7.60;;;20.80;99.90;;;;;;5026890;28;20102;-71
2022/08/04 05:40:28;;;;;;;11.65;7.70;;;21.00;99.90;;;;;;5033566;28;20063;-71
2022/08/04 05:42:55;;;;;;;10.90;7.82;;;21.00;99.90;;;;;;5033741;28;20037;-71
2022/08/04 05:45:22;;;;;;;11.77;7.45;;;21.10;99.90;;;;;;5051519;28;20056;-71
2022/08/04 05:47:51;;;;;;;14.45;7.70;;;21.10;99.90;;;;;;5033089;28;20498;-71
2022/08/04 05:50:17;;;;;;;10.45;7.88;;;21.20;99.90;;;;;;5025827;28;20406;-71
2022/08/04 05:52:43;;;;;;;10.95;7.10;;;21.40;99.90;;;;;;5041246;28;20045;-72
2022/08/04 05:55:11;;;;;;;11.23;6.78;;;21.50;99.90;;;;;;5032811;28;20044;-71
2022/08/04 05:57:40;;;;;;;15.98;8.02;;;21.70;99.90;;;;;;5051635;28;20116;-71
2022/08/04 06:00:06;;;;;;;11.15;7.38;;;22.10;99.90;;;;;;5048301;28;20354;-71
2022/08/04 06:02:34;;;;;;;10.88;7.18;;;23.30;99.90;;;;;;5013030;28;20041;-72
2022/08/04 06:05:01;;;;;;;12.25;6.40;;;24.50;99.90;;;;;;5032204;28;20078;-72
2022/08/04 06:07:27;;;;;;;15.18;6.72;;;;;;;;;;5031932;28;20052;-71
2022/08/04 06:09:54;;;;;;;12.02;5.97;;;27.60;99.90;;;;;;5049726;28;20040;-71
2022/08/04 06:12:27;;;;;;;10.98;6.47;;;27.80;99.90;;;;;;5049686;28;20111;-71
2022/08/04 06:14:55;;;;;;;9.45;5.97;;;28.80;99.90;;;;;;5031171;28;20635;-71
2022/08/04 06:17:27;;;;;;;9.65;5.63;;;29.60;98.20;;;;;;5047406;28;20051;-71
2022/08/04 06:19:54;;;;;;;10.55;5.43;;;30.40;96.80;;;;;;5026492;28;20033;-71
2022/08/04 06:22:22;;;;;;;9.15;5.30;;;30.80;95.80;;;;;;5038709;28;20072;-71
2022/08/04 06:24:51;;;;;;;10.68;5.70;;;31.10;94.60;;;;;;5050263;28;20437;-72
2022/08/04 06:27:17;;;;;;;10.23;4.82;;;31.50;94.10;;;;;;5018816;28;20090;-72
2022/08/04 06:29:44;;;;;;;8.48;4.80;;;;;;;;;;5049159;28;20057;-72
2022/08/04 06:32:23;;;;;;;7.65;5.10;;;32.70;91.80;;;;;;5032254;28;20402;-72
2022/08/04 06:34:56;;;;;;;7.65;5.05;;;33.10;91.00;;;;;;5028506;28;20037;-71
2022/08/04 06:37:24;;;;;;;9.10;5.05;;;33.00;87.70;;;;;;5029826;28;20084;-72
2022/08/04 06:39:50;;;;;;;8.77;4.90;;;33.00;90.60;;;;;;5039978;28;20053;-72
2022/08/04 06:42:17;;;;;;;8.13;4.28;;;33.10;88.70;;;;;;5032400;28;20124;-71
2022/08/04 06:44:47;;;;;;;7.38;3.78;;;33.20;88.10;;;;;;5050003;28;20068;-71
2022/08/04 06:47:13;;;;;;;7.25;4.50;;;33.40;88.90;;;;;;5049011;28;20049;-71
2022/08/04 06:49:39;;;;;;;8.48;4.03;;;33.40;86.60;;;;;;5035180;28;20040;-70
2022/08/04 06:52:06;;;;;;;8.07;4.13;;;33.10;86.60;;;;;;5055020;28;20146;-71
2022/08/04 06:54:31;;;;;;;6.75;3.85;;;32.70;86.40;;;;;;5053898;28;20086;-70
2022/08/04 06:57:00;;;;;;;8.75;4.25;;;32.50;86.50;;;;;;5030491;28;20037;-72
2022/08/04 06:59:27;;;;;;;8.50;4.00;;;32.20;87.30;;;;;;5025119;28;20042;-71
2022/08/04 07:01:54;;;;;;;5.45;3.90;;;32.40;87.50;;;;;;5031610;28;20068;-71
2022/08/04 07:04:20;;;;;;;8.40;3.67;;;32.50;87.10;;;;;;5036310;28;20044;-71
2022/08/04 07:06:46;;;;;;;7.68;3.95;;;32.20;87.00;;;;;;5036552;28;20043;-71
2022/08/04 07:09:11;;;;;;;6.45;3.40;;;32.30;86.80;;;;;;5020265;28;20170;-71
2022/08/04 07:11:37;;;;;;;8.10;3.30;;;32.60;86.60;;;;;;5036400;28;20120;-71
2022/08/04 07:14:04;;;;;;;8.88;4.05;;;32.80;86.60;;;;;;5035029;28;20651;-71
2022/08/04 07:16:30;;;;;;;7.28;3.20;;;32.70;84.50;;;;;;5036502;28;20041;-71
2022/08/04 07:18:56;;;;;;;7.65;3.80;;;32.90;85.90;;;;;;5035935;28;20163;-72
2022/08/04 07:21:23;;;;;;;10.07;3.33;;;33.10;84.40;;;;;;5053458;28;20116;-71
2022/08/04 07:23:52;;;;;;;9.95;3.30;;;33.40;83.90;;;;;;5035283;28;20041;-71
2022/08/04 07:26:18;;;;;;;7.90;3.50;;;33.60;84.30;;;;;;5052877;28;20128;-71
2022/08/04 07:28:44;;;;;;;10.52;3.75;;;33.60;82.00;;;;;;5036303;28;20053;-71
2022/08/04 07:31:15;;;;;;;7.20;3.38;;;33.60;80.00;;;;;;5048945;28;20373;-71
2022/08/04 07:33:41;;;;;;;;;;;33.80;80.40;;;;;;5019945;28;20037;-70
2022/08/04 07:36:06;;;;;;;9.23;3.00;;;34.10;81.40;;;;;;5036324;28;20018;-71
2022/08/04 07:38:32;;;;;;;6.47;3.10;;;34.10;80.40;;;;;;5035818;28;20398;-70
2022/08/04 07:40:59;;;;;;;8.25;2.88;;;34.30;79.90;;;;;;5053698;28;20853;-71
2022/08/04 07:43:26;;;;;;;8.32;2.85;;;34.50;80.30;;;;;;5033748;28;20590;-71
2022/08/04 07:45:52;;;;;;;8.35;2.70;;;34.60;78.40;;;;;;5052595;28;20049;-71
2022/08/04 07:48:21;;;;;;;5.38;2.65;;;34.80;78.30;;;;;;5051280;28;20090;-71
2022/08/04 07:50:47;;;;;;;4.93;3.30;;;35.00;77.10;;;;;;5033606;28;20135;-71
2022/08/04 07:53:13;;;;;;;7.68;3.17;;;35.20;76.50;;;;;;5034950;28;20100;-71
2022/08/04 07:55:39;;;;;;;4.65;2.70;;;35.10;75.60;;;;;;5035288;28;20041;-72
2022/08/04 07:58:04;;;;;;;4.13;2.63;;;35.40;76.40;;;;;;5033432;28;20045;-70
2022/08/04 08:00:31;;;;;;;8.23;2.97;;;35.60;75.60;;;;;;5039817;28;20041;-72
2022/08/04 08:02:57;;;;;;;6.95;2.88;;;35.40;75.10;;;;;;5033021;28;20514;-72
2022/08/04 08:05:23;;;;;;;5.55;2.80;;;35.00;75.40;;;;;;5051917;28;20045;-71
2022/08/04 08:07:50;;;;;;;11.73;2.90;;;34.60;75.70;;;;;;5039520;28;20052;-71
2022/08/04 08:10:16;;;;;;;6.00;2.50;;;33.90;74.50;;;;;;5052028;28;20044;-71
2022/08/04 08:12:42;;;;;;;8.13;2.55;;;33.20;77.00;;;;;;5030797;28;20048;-72
2022/08/04 08:15:11;;;;;;;9.23;2.70;;;32.70;77.90;;;;;;5033128;28;20091;-72
2022/08/04 08:17:39;;;;;;;5.72;2.55;;;32.30;77.70;;;;;;5033178;28;20570;-71
2022/08/04 08:20:08;;;;;;;7.50;2.72;;;32.00;77.90;;;;;;5047663;28;20490;-71
2022/08/04 08:22:36;;;;;;;5.55;2.28;;;31.70;79.20;;;;;;5038157;28;20067;-71
2022/08/04 08:25:01;;;;;;;9.27;2.45;;;31.50;80.50;;;;;;5036872;28;20036;-71
2022/08/04 08:27:27;;;;;;;8.60;2.50;;;31.30;81.40;;;;;;5028237;28;20078;-72
2022/08/04 08:29:54;;;;;;;7.28;2.38;;;31.20;80.80;;;;;;5065652;28;20044;-71
2022/08/04 08:32:19;;;;;;;4.70;2.10;;;31.10;82.50;;;;;;5049835;28;20052;-71
2022/08/04 08:34:45;;;;;;;15.30;2.65;;;31.00;84.00;;;;;;5052015;28;20033;-72
2022/08/04 08:37:21;;;;;;;9.57;3.13;;;30.90;80.90;;;;;;5032555;28;20155;-71
2022/08/04 08:39:58;;;;;;;7.15;2.42;;;30.80;82.50;;;;;;5017160;28;20120;-72
2022/08/04 08:43:11;;;;;;;6.63;2.25;;;30.70;82.70;;;;;;5033495;28;20083;-72
2022/08/04 08:46:02;;;;;;;8.00;2.70;;;30.70;83.40;;;;;;5032289;28;20048;-71
2022/08/04 08:49:05;;;;;;;6.22;2.42;;;30.60;83.40;;;;;;5014987;28;20057;-72
2022/08/04 08:51:41;;;;;;;7.47;2.50;;;30.60;83.70;;;;;;5033049;28;20045;-72
2022/08/04 08:54:35;;;;;;;4.25;2.08;;;30.50;84.30;;;;;;5029995;28;20048;-72
2022/08/04 08:57:12;;;;;;;6.40;2.33;;;30.60;81.60;;;;;;5031829;28;20482;-72
2022/08/04 08:59:46;;;;;;;6.47;2.83;;;30.60;82.20;;;;;;5014886;28;20041;-71
2022/08/04 09:02:44;;;;;;;4.78;2.55;;;30.50;81.00;;;;;;5028349;28;20137;-71
2022/08/04 09:05:48;;;;;;;6.72;2.75;;;30.50;84.40;;;;;;5034172;28;20085;-71
2022/08/04 09:08:38;;;;;;;8.18;2.78;;;30.50;83.20;;;;;;5013107;28;20186;-72
2022/08/04 09:11:08;;;;;;;8.77;2.70;;;30.60;81.60;;;;;;5031470;28;20079;-72
2022/08/04 09:13:42;;;;;;;5.93;2.50;;;30.50;82.30;;;;;;5024362;28;20087;-71
2022/08/04 09:16:16;;;;;;;5.82;2.50;;;30.50;82.70;;;;;;5028742;28;20143;-72
2022/08/04 09:19:10;;;;;;;6.88;2.35;;;30.50;81.30;;;;;;5032542;28;20087;-71
2022/08/04 09:21:51;;;;;;;7.47;2.47;;;30.50;83.20;;;;;;5034440;28;20099;-72
2022/08/04 09:24:46;;;;;;;6.43;2.50;;;30.50;82.80;;;;;;5040889;28;20410;-71
2022/08/04 09:27:54;;;;;;;7.50;2.90;;;30.40;84.70;;;;;;5045492;28;20052;-72
2022/08/04 09:30:40;;;;;;;8.95;2.80;;;30.40;82.50;;;;;;5014043;28;20072;-72
2022/08/04 09:33:32;;;;;;;11.98;3.15;;;30.40;84.50;;;;;;5044000;28;20087;-72
2022/08/04 09:36:03;;;;;;;8.35;3.35;;;30.50;81.00;;;;;;5038598;28;20033;-71
2022/08/04 09:38:40;;;;;;;;;;;30.40;84.00;;;;;;5030155;28;20094;-72
2022/08/04 09:41:55;;;;;;;7.63;4.38;;;30.20;84.50;;;;;;5032836;28;19955;-71
2022/08/04 09:44:43;;;;;;;8.00;3.55;;;29.80;89.30;;;;;;5019115;28;20262;-71
2022/08/04 09:47:15;;;;;;;7.97;3.97;;;29.90;87.40;;;;;;5007906;28;20072;-72
2022/08/04 09:49:54;;;;;;;;;;;29.80;90.20;;;;;;5048970;28;20419;-72
2022/08/04 09:52:31;;;;;;;6.07;3.35;;;29.90;87.30;;;;;;5044973;28;19930;-71
2022/08/04 09:55:22;;;;;;;7.13;3.13;;;30.00;84.30;;;;;;5018264;28;20069;-72
2022/08/04 09:58:21;;;;;;;9.23;3.70;;;30.00;85.80;;;;;;5046676;28;20479;-72
2022/08/04 10:00:51;;;;;;;8.45;3.10;;;30.00;86.30;;;;;;5001229;28;20132;-72
2022/08/04 10:03:19;;;;;;;7.40;3.40;;;30.00;83.90;;;;;;5033165;28;20045;-71
2022/08/04 10:06:07;;;;;;;9.77;3.90;;;30.10;84.50;;;;;;5033270;28;20379;-72
2022/08/04 10:09:07;;;;;;;7.25;3.60;;;30.10;84.60;;;;;;5049788;28;20040;-72
2022/08/04 10:11:53;;;;;;;9.93;3.75;;;30.10;87.90;;;;;;5031242;28;20049;-72
2022/08/04 10:14:31;;;;;;;6.32;3.78;;;30.20;85.40;;;;;;5048808;28;20669;-72
2022/08/04 10:17:30;;;;;;;6.85;3.90;;;30.20;86.20;;;;;;5031658;28;20048;-70
2022/08/04 10:20:17;;;;;;;7.78;4.00;;;30.20;88.90;;;;;;5018249;28;20045;-71
2022/08/04 10:22:55;;;;;;;6.50;3.80;;;30.20;86.90;;;;;;5031722;28;20049;-71
2022/08/04 10:25:48;;;;;;;6.60;3.10;;;30.00;86.10;;;;;;5035268;28;20028;-71
2022/08/04 10:28:18;;;;;;;5.80;2.67;;;30.00;85.80;;;;;;5041849;28;20045;-72
2022/08/04 10:30:50;;;;;;;6.68;3.78;;;30.10;84.30;;;;;;5032696;28;20047;-71
2022/08/04 10:33:43;;;;;;;7.47;3.17;;;30.10;84.00;;;;;;5032799;28;20041;-71
2022/08/04 10:36:11;;;;;;;6.15;2.83;;;30.10;84.70;;;;;;5029616;28;20037;-71
2022/08/04 10:39:08;;;;;;;9.32;2.97;;;30.10;85.30;;;;;;5028960;28;20073;-72
2022/08/04 10:42:02;;;;;;;5.38;2.75;;;30.10;84.40;;;;;;5020563;28;20067;-71
2022/08/04 10:44:46;;;;;;;4.70;2.50;;;30.00;84.80;;;;;;5029912;28;20459;-71
2022/08/04 10:47:25;;;;;;;4.50;2.22;;;29.90;84.20;;;;;;5029640;28;20041;-71
2022/08/04 10:49:57;;;;;;;6.10;1.90;;;29.90;85.90;;;;;;5030073;28;20369;-71
2022/08/04 10:52:34;;;;;;;4.35;1.80;;;29.90;83.70;;;;;;5013929;28;20053;-71
2022/08/04 10:55:17;;;;;;;6.00;2.17;;;29.70;84.40;;;;;;5020871;28;20134;-71
2022/08/04 10:57:52;;;;;;;7.22;1.90;;;29.70;84.60;;;;;;5010055;28;20053;-71
2022/08/04 11:00:24;;;;;;;6.95;1.60;;;29.80;85.00;;;;;;5013299;28;20367;-71
2022/08/04 11:03:14;;;;;;;4.97;1.80;;;29.90;83.60;;;;;;5026232;28;20056;-71
2022/08/04 11:05:58;;;;;;;6.72;1.67;;;30.10;83.00;;;;;;5027033;28;20167;-72
2022/08/04 11:08:30;;;;;;;6.93;1.70;;;29.90;80.60;;;;;;5009964;28;20050;-71
2022/08/04 11:11:08;;;;;;;5.88;1.40;;;30.00;82.40;;;;;;4998736;28;20083;-71
2022/08/04 11:13:46;;;;;;;5.53;1.67;;;30.00;82.60;;;;;;5030577;28;20387;-71
2022/08/04 11:16:32;;;;;;;11.57;1.67;;;29.80;79.60;;;;;;5029763;28;20076;-71
2022/08/04 11:19:18;;;;;;;5.03;1.60;;;29.80;82.00;;;;;;5017605;28;20052;-71
2022/08/04 11:21:54;;;;;;;4.57;1.35;;;29.80;81.90;;;;;;5009763;28;20057;-71
2022/08/04 11:24:33;;;;;;;6.55;2.00;;;29.90;82.90;;;;;;5009739;28;20052;-71
2022/08/04 11:27:02;;;;;;;8.18;2.13;;;30.00;83.90;;;;;;5022550;28;20077;-71
2022/08/04 11:29:41;;;;;;;3.83;1.60;;;29.70;82.50;;;;;;5028797;28;20041;-71
2022/08/04 11:32:12;;;;;;;5.78;1.60;;;29.90;83.50;;;;;;5027543;28;20042;-71
2022/08/04 11:34:45;;;;;;;6.65;1.90;;;30.00;83.70;;;;;;5029174;28;20120;-71
2022/08/04 11:37:19;;;;;;;5.65;1.85;;;30.00;83.40;;;;;;5034843;28;20441;-70
2022/08/04 11:39:50;;;;;;;7.22;2.55;;;30.00;85.80;;;;;;5045337;28;20095;-71
2022/08/04 11:42:36;;;;;;;4.43;1.63;;;29.90;84.60;;;;;;5033301;28;20072;-71
2022/08/04 11:45:06;;;;;;;8.38;2.40;;;30.00;84.10;;;;;;5049872;28;20033;-66
2022/08/04 11:47:41;;;;;;;5.28;1.77;;;29.90;86.40;;;;;;5033529;28;20056;-66
2022/08/04 11:50:37;;;;;;;8.57;2.28;;;29.80;86.00;;;;;;5024097;28;20483;-66
2022/08/04 11:53:04;;;;;;;8.82;2.45;;;29.80;87.60;;;;;;5033357;28;20053;-66
2022/08/04 11:55:31;;;;;;;6.05;2.25;;;29.70;85.80;;;;;;5042825;28;20471;-67
2022/08/04 11:57:57;;;;;;;3.47;1.70;;;29.60;86.70;;;;;;5031009;28;21898;-66
2022/08/04 12:00:26;;;;;;;4.25;2.00;;;29.60;85.90;;;;;;5047869;28;20028;-66
2022/08/04 12:03:33;;;;;;;4.68;1.55;;;29.70;87.40;;;;;;5017119;28;20041;-66
2022/08/04 12:06:08;;;;;;;3.92;1.55;;;29.50;88.10;;;;;;5026877;28;20382;-66
2022/08/04 12:08:50;;;;;;;4.25;1.60;;;29.60;86.60;;;;;;5045144;28;20467;-66
2022/08/04 12:11:23;;;;;;;1.73;1.40;;;29.30;87.10;;;;;;5050030;28;20051;-66
2022/08/04 12:14:00;;;;;;;2.30;1.25;;;29.10;87.60;;;;;;5028101;28;20045;-66
2022/08/04 12:16:39;;;;;;;2.80;1.35;;;29.00;87.70;;;;;;5028055;28;20033;-66
2022/08/04 12:19:18;;;;;;;3.20;1.50;;;28.70;88.50;;;;;;5039782;28;20045;-66
2022/08/04 12:21:53;;;;;;;3.33;1.40;;;28.50;89.50;;;;;;5035817;28;20060;-66
2022/08/04 12:25:01;;;;;;;2.67;1.20;;;28.50;90.10;;;;;;5034176;28;20131;-66
2022/08/04 12:27:32;;;;;;;2.38;1.05;;;28.50;90.20;;;;;;5048825;28;20660;-66
2022/08/04 12:29:58;;;;;;;4.35;1.15;;;28.60;88.20;;;;;;5052977;28;20037;-67
2022/08/04 12:32:31;;;;;;;4.72;1.40;;;28.60;88.60;;;;;;5051369;28;20045;-66
2022/08/04 12:35:08;;;;;;;3.00;1.10;;;28.50;87.60;;;;;;5050933;28;20033;-67
2022/08/04 12:38:03;;;;;;;5.07;1.30;;;28.50;87.60;;;;;;5052404;28;20060;-67
2022/08/04 12:40:50;;;;;;;3.35;1.42;;;28.30;87.70;;;;;;5034677;28;20044;-67
2022/08/04 12:43:23;;;;;;;3.55;1.60;;;28.20;88.10;;;;;;5052371;28;20037;-67
2022/08/04 12:45:55;;;;;;;8.60;1.67;;;28.00;89.00;;;;;;5027262;28;20475;-67
2022/08/04 12:48:22;;;;;;;8.82;1.90;;;27.80;88.80;;;;;;5049764;28;20090;-67
2022/08/04 12:50:53;;;;;;;10.85;2.10;;;27.60;90.20;;;;;;5032557;28;20040;-66
2022/08/04 12:53:32;;;;;;;24.13;3.13;;;27.50;92.30;;;;;;5034403;28;20505;-67
2022/08/04 12:56:00;;;;;;;19.63;2.72;;;27.30;91.60;;;;;;5037159;28;20344;-67
2022/08/04 12:58:31;;;;;;;12.52;3.20;;;27.10;92.10;;;;;;5017400;28;20037;-67
2022/08/04 13:01:02;;;;;;;;;;;26.90;93.40;;;;;;5033716;28;20037;-67
2022/08/04 13:03:43;;;;;;;6.28;1.95;;;26.80;93.70;;;;;;5022346;28;19927;-67
2022/08/04 13:06:10;;;;;;;;;;;26.70;94.70;;;;;;5031564;28;20095;-66
2022/08/04 13:08:39;;;;;;;5.43;1.70;;;26.70;94.90;;;;;;5025089;28;20373;-66
2022/08/04 13:11:06;;;;;;;3.35;1.50;;;26.80;95.10;;;;;;5026080;28;20064;-66
2022/08/04 13:13:35;;;;;;;2.70;1.58;;;26.90;94.70;;;;;;5025904;28;20125;-66
2022/08/04 13:16:04;;;;;;;4.22;1.65;;;27.10;95.70;;;;;;5037432;28;20479;-66
2022/08/04 13:18:34;;;;;;;4.95;1.30;;;27.20;96.00;;;;;;5021223;28;20072;-66
2022/08/04 13:21:20;;;;;;;3.55;1.30;;;27.40;95.30;;;;;;5051761;28;20122;-67
2022/08/04 13:23:48;;;;;;;2.22;1.30;;;27.50;93.40;;;;;;5028493;28;20501;-67
2022/08/04 13:26:16;;;;;;;2.13;1.10;;;27.60;92.70;;;;;;5042778;28;20037;-67
2022/08/04 13:28:47;;;;;;;1.98;1.10;;;27.80;92.30;;;;;;5045664;28;20086;-67
2022/08/04 13:31:19;;;;;;;2.80;1.23;;;27.90;91.80;;;;;;5038369;28;20037;-67
2022/08/04 13:33:48;;;;;;;1.40;1.00;;;28.00;91.20;;;;;;5026865;28;20045;-67
2022/08/04 13:36:16;;;;;;;2.83;0.90;;;28.10;91.00;;;;;;5041229;28;20497;-67